sensor_id;sensor_type;location;lat;lon;timestamp;temperature;humidity
7814;DHT22;3952;48.364;16.022;2023-05-07T00:01:58;14.30;99.90
7814;DHT22;3952;48.364;16.022;2023-05-07T00:04:25;14.20;99.90
7814;DHT22;3952;48.364;16.022;2023-05-07T00:06:53;14.10;99.90
7814;DHT22;3952;48.364;16.022;2023-05-07T00:09:22;14.10;99.90
7814;DHT22;3952;48.364;16.022;2023-05-07T00:11:49;14.00;99.90
7814;DHT22;3952;48.364;16.022;2023-05-07T00:14:16;13.90;99.90
7814;DHT22;3952;48.364;16.022;2023-05-07T00:16:43;13.90;99.90
7814;DHT22;3952;48.364;16.022;2023-05-07T00:19:11;13.90;99.90
7814;DHT22;3952;48.364;16.022;2023-05-07T00:21:38;13.90;99.90
7814;DHT22;3952;48.364;16.022;2023-05-07T00:24:05;13.90;99.90
7814;DHT22;3952;48.364;16.022;2023-05-07T00:26:34;13.90;99.90
7814;DHT22;3952;48.364;16.022;2023-05-07T00:29:01;13.90;99.90
7814;DHT22;3952;48.364;16.022;2023-05-07T00:31:28;13.80;99.90
7814;DHT22;3952;48.364;16.022;2023-05-07T00:33:55;13.80;99.90
7814;DHT22;3952;48.364;16.022;2023-05-07T00:36:22;13.80;99.90
7814;DHT22;3952;48.364;16.022;2023-05-07T00:38:50;13.80;99.90
7814;DHT22;3952;48.364;16.022;2023-05-07T00:41:17;13.80;99.90
7814;DHT22;3952;48.364;16.022;2023-05-07T00:43:46;13.80;99.90
7814;DHT22;3952;48.364;16.022;2023-05-07T00:46:13;13.80;99.90
7814;DHT22;3952;48.364;16.022;2023-05-07T00:48:42;13.70;99.90
7814;DHT22;3952;48.364;16.022;2023-05-07T00:51:09;13.70;99.90
7814;DHT22;3952;48.364;16.022;2023-05-07T00:53:38;13.70;99.90
7814;DHT22;3952;48.364;16.022;2023-05-07T00:56:06;13.70;99.90
7814;DHT22;3952;48.364;16.022;2023-05-07T00:58:33;13.70;99.90
7814;DHT22;3952;48.364;16.022;2023-05-07T01:01:02;13.70;99.90
7814;DHT22;3952;48.364;16.022;2023-05-07T01:03:30;13.70;99.90
7814;DHT22;3952;48.364;16.022;2023-05-07T01:05:57;13.70;99.90
7814;DHT22;3952;48.364;16.022;2023-05-07T01:08:25;13.70;99.90
7814;DHT22;3952;48.364;16.022;2023-05-07T01:10:55;13.60;99.90
7814;DHT22;3952;48.364;16.022;2023-05-07T01:13:23;13.60;99.90
7814;DHT22;3952;48.364;16.022;2023-05-07T01:15:51;13.60;99.90
7814;DHT22;3952;48.364;16.022;2023-05-07T01:18:19;13.60;99.90
7814;DHT22;3952;48.364;16.022;2023-05-07T01:20:47;13.60;99.90
7814;DHT22;3952;48.364;16.022;2023-05-07T01:23:16;13.50;99.90
7814;DHT22;3952;48.364;16.022;2023-05-07T01:25:51;13.50;99.90
7814;DHT22;3952;48.364;16.022;2023-05-07T01:28:18;13.50;99.90
7814;DHT22;3952;48.364;16.022;2023-05-07T01:30:48;13.50;99.90
7814;DHT22;3952;48.364;16.022;2023-05-07T01:33:19;13.50;99.90
7814;DHT22;3952;48.364;16.022;2023-05-07T01:35:50;13.50;99.90
7814;DHT22;3952;48.364;16.022;2023-05-07T01:38:21;13.50;99.90
7814;DHT22;3952;48.364;16.022;2023-05-07T01:40:49;13.40;99.90
7814;DHT22;3952;48.364;16.022;2023-05-07T01:43:17;13.30;99.90
7814;DHT22;3952;48.364;16.022;2023-05-07T01:45:45;13.20;99.90
7814;DHT22;3952;48.364;16.022;2023-05-07T01:48:15;13.20;99.90
7814;DHT22;3952;48.364;16.022;2023-05-07T01:50:43;13.30;99.90
7814;DHT22;3952;48.364;16.022;2023-05-07T01:53:11;13.30;99.90
7814;DHT22;3952;48.364;16.022;2023-05-07T01:55:39;13.20;99.90
7814;DHT22;3952;48.364;16.022;2023-05-07T01:58:06;13.20;99.90
7814;DHT22;3952;48.364;16.022;2023-05-07T02:00:34;13.10;99.90
7814;DHT22;3952;48.364;16.022;2023-05-07T02:03:01;13.10;99.90
7814;DHT22;3952;48.364;16.022;2023-05-07T02:05:28;13.20;99.90
7814;DHT22;3952;48.364;16.022;2023-05-07T02:07:55;13.10;99.90
7814;DHT22;3952;48.364;16.022;2023-05-07T02:10:22;13.10;99.90
7814;DHT22;3952;48.364;16.022;2023-05-07T02:12:51;13.20;99.90
7814;DHT22;3952;48.364;16.022;2023-05-07T02:15:18;13.10;99.90
7814;DHT22;3952;48.364;16.022;2023-05-07T02:17:59;13.10;99.90
7814;DHT22;3952;48.364;16.022;2023-05-07T02:20:27;13.10;99.90
7814;DHT22;3952;48.364;16.022;2023-05-07T02:22:54;13.10;99.90
7814;DHT22;3952;48.364;16.022;2023-05-07T02:25:21;13.10;99.90
7814;DHT22;3952;48.364;16.022;2023-05-07T02:27:49;13.00;99.90
7814;DHT22;3952;48.364;16.022;2023-05-07T02:30:17;13.00;99.90
7814;DHT22;3952;48.364;16.022;2023-05-07T02:32:46;12.90;99.90
7814;DHT22;3952;48.364;16.022;2023-05-07T02:35:14;12.90;99.90
7814;DHT22;3952;48.364;16.022;2023-05-07T02:37:41;12.90;99.90
7814;DHT22;3952;48.364;16.022;2023-05-07T02:40:09;12.90;99.90
7814;DHT22;3952;48.364;16.022;2023-05-07T02:42:36;12.80;99.90
7814;DHT22;3952;48.364;16.022;2023-05-07T02:45:04;12.80;99.90
7814;DHT22;3952;48.364;16.022;2023-05-07T02:47:33;12.70;99.90
7814;DHT22;3952;48.364;16.022;2023-05-07T02:50:00;12.70;99.90
7814;DHT22;3952;48.364;16.022;2023-05-07T02:52:28;12.60;99.90
7814;DHT22;3952;48.364;16.022;2023-05-07T02:54:55;12.60;99.90
7814;DHT22;3952;48.364;16.022;2023-05-07T02:57:22;12.60;99.90
7814;DHT22;3952;48.364;16.022;2023-05-07T02:59:49;12.60;99.90
7814;DHT22;3952;48.364;16.022;2023-05-07T03:02:16;12.60;99.90
7814;DHT22;3952;48.364;16.022;2023-05-07T03:04:45;12.60;99.90
7814;DHT22;3952;48.364;16.022;2023-05-07T03:07:12;12.60;99.90
7814;DHT22;3952;48.364;16.022;2023-05-07T03:09:40;12.60;99.90
7814;DHT22;3952;48.364;16.022;2023-05-07T03:12:07;12.60;99.90
7814;DHT22;3952;48.364;16.022;2023-05-07T03:14:34;12.60;99.90
7814;DHT22;3952;48.364;16.022;2023-05-07T03:17:01;12.50;99.90
7814;DHT22;3952;48.364;16.022;2023-05-07T03:19:28;12.50;99.90
7814;DHT22;3952;48.364;16.022;2023-05-07T03:21:58;12.50;99.90
7814;DHT22;3952;48.364;16.022;2023-05-07T03:24:25;12.40;99.90
7814;DHT22;3952;48.364;16.022;2023-05-07T03:26:52;12.30;99.90
7814;DHT22;3952;48.364;16.022;2023-05-07T03:29:19;12.30;99.90
7814;DHT22;3952;48.364;16.022;2023-05-07T03:31:46;12.30;99.90
7814;DHT22;3952;48.364;16.022;2023-05-07T03:34:13;12.30;99.90
7814;DHT22;3952;48.364;16.022;2023-05-07T03:36:42;12.30;99.90
7814;DHT22;3952;48.364;16.022;2023-05-07T03:39:11;12.30;99.90
7814;DHT22;3952;48.364;16.022;2023-05-07T03:41:38;12.20;99.90
7814;DHT22;3952;48.364;16.022;2023-05-07T03:44:05;12.20;99.90
7814;DHT22;3952;48.364;16.022;2023-05-07T03:46:33;12.10;99.90
7814;DHT22;3952;48.364;16.022;2023-05-07T03:49:01;12.20;99.90
7814;DHT22;3952;48.364;16.022;2023-05-07T03:51:28;12.10;99.90
7814;DHT22;3952;48.364;16.022;2023-05-07T03:53:55;12.10;99.90
7814;DHT22;3952;48.364;16.022;2023-05-07T03:56:25;12.10;99.90
7814;DHT22;3952;48.364;16.022;2023-05-07T03:58:53;12.10;99.90
7814;DHT22;3952;48.364;16.022;2023-05-07T04:01:20;12.00;99.90
7814;DHT22;3952;48.364;16.022;2023-05-07T04:03:47;12.00;99.90
7814;DHT22;3952;48.364;16.022;2023-05-07T04:06:16;12.00;99.90
7814;DHT22;3952;48.364;16.022;2023-05-07T04:08:43;12.00;99.90
7814;DHT22;3952;48.364;16.022;2023-05-07T04:11:11;12.00;99.90
7814;DHT22;3952;48.364;16.022;2023-05-07T04:13:39;12.00;99.90
7814;DHT22;3952;48.364;16.022;2023-05-07T04:16:06;12.00;99.90
7814;DHT22;3952;48.364;16.022;2023-05-07T04:18:33;12.00;99.90
7814;DHT22;3952;48.364;16.022;2023-05-07T04:21:01;12.00;99.90
7814;DHT22;3952;48.364;16.022;2023-05-07T04:23:28;12.00;99.90
7814;DHT22;3952;48.364;16.022;2023-05-07T04:25:55;12.10;99.90
7814;DHT22;3952;48.364;16.022;2023-05-07T04:28:23;12.10;99.90
7814;DHT22;3952;48.364;16.022;2023-05-07T04:30:51;12.20;99.90
7814;DHT22;3952;48.364;16.022;2023-05-07T04:33:18;12.20;99.90
7814;DHT22;3952;48.364;16.022;2023-05-07T04:35:46;12.30;99.90
7814;DHT22;3952;48.364;16.022;2023-05-07T04:38:13;12.30;99.90
7814;DHT22;3952;48.364;16.022;2023-05-07T04:40:40;12.30;99.90
7814;DHT22;3952;48.364;16.022;2023-05-07T04:43:08;12.40;99.90
7814;DHT22;3952;48.364;16.022;2023-05-07T04:45:35;12.40;99.90
7814;DHT22;3952;48.364;16.022;2023-05-07T04:48:05;12.50;99.90
7814;DHT22;3952;48.364;16.022;2023-05-07T04:50:32;12.50;99.90
7814;DHT22;3952;48.364;16.022;2023-05-07T04:52:59;12.70;99.90
7814;DHT22;3952;48.364;16.022;2023-05-07T04:55:26;12.80;99.90
7814;DHT22;3952;48.364;16.022;2023-05-07T04:57:54;13.00;99.90
7814;DHT22;3952;48.364;16.022;2023-05-07T05:00:21;13.10;99.90
7814;DHT22;3952;48.364;16.022;2023-05-07T05:02:48;13.10;99.90
7814;DHT22;3952;48.364;16.022;2023-05-07T05:05:17;13.20;99.90
7814;DHT22;3952;48.364;16.022;2023-05-07T05:07:44;13.20;99.90
7814;DHT22;3952;48.364;16.022;2023-05-07T05:10:12;13.20;99.90
7814;DHT22;3952;48.364;16.022;2023-05-07T05:12:39;13.10;99.90
7814;DHT22;3952;48.364;16.022;2023-05-07T05:15:08;13.20;99.90
7814;DHT22;3952;48.364;16.022;2023-05-07T05:17:36;13.20;99.90
7814;DHT22;3952;48.364;16.022;2023-05-07T05:20:04;13.20;99.90
7814;DHT22;3952;48.364;16.022;2023-05-07T05:22:33;13.20;99.90
7814;DHT22;3952;48.364;16.022;2023-05-07T05:25:00;13.30;99.90
7814;DHT22;3952;48.364;16.022;2023-05-07T05:27:27;13.30;99.90
7814;DHT22;3952;48.364;16.022;2023-05-07T05:29:55;13.30;99.90
7814;DHT22;3952;48.364;16.022;2023-05-07T05:32:22;13.30;99.90
7814;DHT22;3952;48.364;16.022;2023-05-07T05:34:49;13.30;99.90
7814;DHT22;3952;48.364;16.022;2023-05-07T05:37:16;13.30;99.90
7814;DHT22;3952;48.364;16.022;2023-05-07T05:39:45;13.30;99.90
7814;DHT22;3952;48.364;16.022;2023-05-07T05:42:12;13.40;99.90
7814;DHT22;3952;48.364;16.022;2023-05-07T05:44:39;13.50;99.90
7814;DHT22;3952;48.364;16.022;2023-05-07T05:47:07;13.50;99.90
7814;DHT22;3952;48.364;16.022;2023-05-07T05:49:34;13.60;99.90
7814;DHT22;3952;48.364;16.022;2023-05-07T05:52:01;13.60;99.90
7814;DHT22;3952;48.364;16.022;2023-05-07T05:54:28;13.70;99.90
7814;DHT22;3952;48.364;16.022;2023-05-07T05:56:57;13.70;99.90
7814;DHT22;3952;48.364;16.022;2023-05-07T05:59:24;13.80;99.90
7814;DHT22;3952;48.364;16.022;2023-05-07T06:01:52;13.80;99.90
7814;DHT22;3952;48.364;16.022;2023-05-07T06:04:19;13.90;99.90
7814;DHT22;3952;48.364;16.022;2023-05-07T06:06:46;13.90;99.90
7814;DHT22;3952;48.364;16.022;2023-05-07T06:09:13;14.00;99.90
7814;DHT22;3952;48.364;16.022;2023-05-07T06:11:40;14.10;99.90
7814;DHT22;3952;48.364;16.022;2023-05-07T06:14:09;14.10;99.90
7814;DHT22;3952;48.364;16.022;2023-05-07T06:16:36;14.20;99.90
7814;DHT22;3952;48.364;16.022;2023-05-07T06:19:03;14.30;99.90
7814;DHT22;3952;48.364;16.022;2023-05-07T06:21:30;14.30;99.90
7814;DHT22;3952;48.364;16.022;2023-05-07T06:23:58;14.40;99.90
7814;DHT22;3952;48.364;16.022;2023-05-07T06:26:25;14.40;99.90
7814;DHT22;3952;48.364;16.022;2023-05-07T06:28:52;14.40;99.90
7814;DHT22;3952;48.364;16.022;2023-05-07T06:31:21;14.50;99.90
7814;DHT22;3952;48.364;16.022;2023-05-07T06:33:48;14.50;99.90
7814;DHT22;3952;48.364;16.022;2023-05-07T06:36:15;14.60;99.90
7814;DHT22;3952;48.364;16.022;2023-05-07T06:38:42;14.60;99.90
7814;DHT22;3952;48.364;16.022;2023-05-07T06:41:10;14.60;99.90
7814;DHT22;3952;48.364;16.022;2023-05-07T06:43:37;14.60;99.90
7814;DHT22;3952;48.364;16.022;2023-05-07T06:46:04;14.70;99.90
7814;DHT22;3952;48.364;16.022;2023-05-07T06:48:33;14.70;99.90
7814;DHT22;3952;48.364;16.022;2023-05-07T06:51:00;14.60;99.90
7814;DHT22;3952;48.364;16.022;2023-05-07T06:53:27;14.60;99.90
7814;DHT22;3952;48.364;16.022;2023-05-07T06:55:56;14.70;99.90
7814;DHT22;3952;48.364;16.022;2023-05-07T06:58:23;14.70;99.90
7814;DHT22;3952;48.364;16.022;2023-05-07T07:00:50;14.70;99.90
7814;DHT22;3952;48.364;16.022;2023-05-07T07:03:17;14.70;99.90
7814;DHT22;3952;48.364;16.022;2023-05-07T07:05:46;14.70;99.90
7814;DHT22;3952;48.364;16.022;2023-05-07T07:08:13;14.80;99.90
7814;DHT22;3952;48.364;16.022;2023-05-07T07:10:42;14.80;99.90
7814;DHT22;3952;48.364;16.022;2023-05-07T07:13:09;14.90;99.90
7814;DHT22;3952;48.364;16.022;2023-05-07T07:15:37;14.90;99.90
7814;DHT22;3952;48.364;16.022;2023-05-07T07:18:04;15.00;99.90
7814;DHT22;3952;48.364;16.022;2023-05-07T07:20:31;15.00;99.90
7814;DHT22;3952;48.364;16.022;2023-05-07T07:23:00;15.10;99.90
7814;DHT22;3952;48.364;16.022;2023-05-07T07:25:27;15.20;99.90
7814;DHT22;3952;48.364;16.022;2023-05-07T07:27:54;15.20;99.90
7814;DHT22;3952;48.364;16.022;2023-05-07T07:30:21;15.30;99.90
7814;DHT22;3952;48.364;16.022;2023-05-07T07:32:49;15.40;99.90
7814;DHT22;3952;48.364;16.022;2023-05-07T07:35:17;15.50;99.90
7814;DHT22;3952;48.364;16.022;2023-05-07T07:37:44;15.60;99.90
7814;DHT22;3952;48.364;16.022;2023-05-07T07:40:14;15.70;99.90
7814;DHT22;3952;48.364;16.022;2023-05-07T07:42:41;15.80;99.90
7814;DHT22;3952;48.364;16.022;2023-05-07T07:45:09;15.90;99.90
7814;DHT22;3952;48.364;16.022;2023-05-07T07:47:36;15.90;99.90
7814;DHT22;3952;48.364;16.022;2023-05-07T07:50:04;15.90;99.90
7814;DHT22;3952;48.364;16.022;2023-05-07T07:52:33;15.90;99.90
7814;DHT22;3952;48.364;16.022;2023-05-07T07:55:00;15.90;99.90
7814;DHT22;3952;48.364;16.022;2023-05-07T07:57:29;15.90;99.90
7814;DHT22;3952;48.364;16.022;2023-05-07T07:59:56;15.90;99.90
7814;DHT22;3952;48.364;16.022;2023-05-07T08:02:23;15.90;99.90
7814;DHT22;3952;48.364;16.022;2023-05-07T08:04:50;15.90;99.90
7814;DHT22;3952;48.364;16.022;2023-05-07T08:07:18;16.10;99.90
7814;DHT22;3952;48.364;16.022;2023-05-07T08:09:46;16.40;99.90
7814;DHT22;3952;48.364;16.022;2023-05-07T08:12:14;16.50;99.90
7814;DHT22;3952;48.364;16.022;2023-05-07T08:14:43;16.60;99.90
7814;DHT22;3952;48.364;16.022;2023-05-07T08:17:10;16.70;99.90
7814;DHT22;3952;48.364;16.022;2023-05-07T08:19:37;16.60;99.90
7814;DHT22;3952;48.364;16.022;2023-05-07T08:22:04;16.70;99.90
7814;DHT22;3952;48.364;16.022;2023-05-07T08:24:32;16.90;99.90
7814;DHT22;3952;48.364;16.022;2023-05-07T08:26:59;17.00;99.90
7814;DHT22;3952;48.364;16.022;2023-05-07T08:29:26;17.10;99.90
7814;DHT22;3952;48.364;16.022;2023-05-07T08:31:55;17.10;99.90
7814;DHT22;3952;48.364;16.022;2023-05-07T08:34:22;17.10;99.90
7814;DHT22;3952;48.364;16.022;2023-05-07T08:36:49;17.00;99.90
7814;DHT22;3952;48.364;16.022;2023-05-07T08:39:16;17.00;99.90
7814;DHT22;3952;48.364;16.022;2023-05-07T08:41:45;17.10;99.90
7814;DHT22;3952;48.364;16.022;2023-05-07T08:44:13;17.10;99.90
7814;DHT22;3952;48.364;16.022;2023-05-07T08:46:41;17.30;99.90
7814;DHT22;3952;48.364;16.022;2023-05-07T08:49:10;17.50;99.90
7814;DHT22;3952;48.364;16.022;2023-05-07T08:51:37;17.70;99.90
7814;DHT22;3952;48.364;16.022;2023-05-07T08:54:05;17.80;99.90
7814;DHT22;3952;48.364;16.022;2023-05-07T08:56:33;17.80;99.90
7814;DHT22;3952;48.364;16.022;2023-05-07T08:59:00;17.80;99.90
7814;DHT22;3952;48.364;16.022;2023-05-07T09:01:29;17.70;99.90
7814;DHT22;3952;48.364;16.022;2023-05-07T09:03:57;17.60;99.90
7814;DHT22;3952;48.364;16.022;2023-05-07T09:06:26;17.60;99.90
7814;DHT22;3952;48.364;16.022;2023-05-07T09:08:54;17.50;99.90
7814;DHT22;3952;48.364;16.022;2023-05-07T09:11:23;17.50;99.90
7814;DHT22;3952;48.364;16.022;2023-05-07T09:13:53;17.50;99.90
7814;DHT22;3952;48.364;16.022;2023-05-07T09:16:22;17.50;99.90
7814;DHT22;3952;48.364;16.022;2023-05-07T09:18:52;17.50;99.90
7814;DHT22;3952;48.364;16.022;2023-05-07T09:21:21;17.50;99.90
7814;DHT22;3952;48.364;16.022;2023-05-07T09:23:50;17.60;99.90
7814;DHT22;3952;48.364;16.022;2023-05-07T09:26:18;17.70;99.90
7814;DHT22;3952;48.364;16.022;2023-05-07T09:28:46;17.70;99.90
7814;DHT22;3952;48.364;16.022;2023-05-07T09:31:13;17.70;99.90
7814;DHT22;3952;48.364;16.022;2023-05-07T09:33:40;17.60;99.90
7814;DHT22;3952;48.364;16.022;2023-05-07T09:36:09;17.50;99.90
7814;DHT22;3952;48.364;16.022;2023-05-07T09:38:37;17.60;99.90
7814;DHT22;3952;48.364;16.022;2023-05-07T09:41:07;17.80;99.90
7814;DHT22;3952;48.364;16.022;2023-05-07T09:43:36;18.00;99.90
7814;DHT22;3952;48.364;16.022;2023-05-07T09:46:05;18.00;99.90
7814;DHT22;3952;48.364;16.022;2023-05-07T09:48:37;17.90;99.90
7814;DHT22;3952;48.364;16.022;2023-05-07T09:51:18;17.80;99.90
7814;DHT22;3952;48.364;16.022;2023-05-07T09:53:48;17.90;99.90
7814;DHT22;3952;48.364;16.022;2023-05-07T09:56:18;18.00;99.90
7814;DHT22;3952;48.364;16.022;2023-05-07T09:58:47;18.00;99.90
7814;DHT22;3952;48.364;16.022;2023-05-07T10:01:15;18.00;99.90
7814;DHT22;3952;48.364;16.022;2023-05-07T10:03:46;18.00;99.90
7814;DHT22;3952;48.364;16.022;2023-05-07T10:06:14;18.10;99.90
7814;DHT22;3952;48.364;16.022;2023-05-07T10:08:42;18.20;99.90
7814;DHT22;3952;48.364;16.022;2023-05-07T10:11:10;18.30;99.90
7814;DHT22;3952;48.364;16.022;2023-05-07T10:13:39;18.40;99.90
7814;DHT22;3952;48.364;16.022;2023-05-07T10:16:07;18.40;99.90
7814;DHT22;3952;48.364;16.022;2023-05-07T10:18:34;18.60;99.90
7814;DHT22;3952;48.364;16.022;2023-05-07T10:21:07;18.60;99.90
7814;DHT22;3952;48.364;16.022;2023-05-07T10:23:35;18.60;99.90
7814;DHT22;3952;48.364;16.022;2023-05-07T10:26:04;18.60;99.90
7814;DHT22;3952;48.364;16.022;2023-05-07T10:28:34;18.70;99.90
7814;DHT22;3952;48.364;16.022;2023-05-07T10:31:20;18.60;99.90
7814;DHT22;3952;48.364;16.022;2023-05-07T10:33:51;18.50;99.90
7814;DHT22;3952;48.364;16.022;2023-05-07T10:36:20;18.40;99.90
7814;DHT22;3952;48.364;16.022;2023-05-07T10:38:48;18.40;99.90
7814;DHT22;3952;48.364;16.022;2023-05-07T10:41:15;18.50;99.90
7814;DHT22;3952;48.364;16.022;2023-05-07T10:43:45;18.80;99.90
7814;DHT22;3952;48.364;16.022;2023-05-07T10:46:15;18.90;99.90
7814;DHT22;3952;48.364;16.022;2023-05-07T10:49:10;19.00;99.90
7814;DHT22;3952;48.364;16.022;2023-05-07T10:51:41;18.90;99.90
7814;DHT22;3952;48.364;16.022;2023-05-07T10:54:22;18.90;99.90
7814;DHT22;3952;48.364;16.022;2023-05-07T10:56:50;18.90;99.90
7814;DHT22;3952;48.364;16.022;2023-05-07T10:59:34;18.90;99.90
7814;DHT22;3952;48.364;16.022;2023-05-07T11:02:10;18.80;99.90
7814;DHT22;3952;48.364;16.022;2023-05-07T11:04:39;18.80;99.90
7814;DHT22;3952;48.364;16.022;2023-05-07T11:07:24;18.90;99.90
7814;DHT22;3952;48.364;16.022;2023-05-07T11:10:01;19.00;99.90
7814;DHT22;3952;48.364;16.022;2023-05-07T11:12:50;18.90;99.90
7814;DHT22;3952;48.364;16.022;2023-05-07T11:15:41;18.90;99.90
7814;DHT22;3952;48.364;16.022;2023-05-07T11:18:12;19.00;99.90
7814;DHT22;3952;48.364;16.022;2023-05-07T11:20:53;19.00;99.90
7814;DHT22;3952;48.364;16.022;2023-05-07T11:26:43;19.10;99.90
7814;DHT22;3952;48.364;16.022;2023-05-07T11:29:12;19.20;99.90
7814;DHT22;3952;48.364;16.022;2023-05-07T11:31:40;19.20;99.90
7814;DHT22;3952;48.364;16.022;2023-05-07T11:34:09;19.30;99.90
7814;DHT22;3952;48.364;16.022;2023-05-07T11:36:42;19.50;99.90
7814;DHT22;3952;48.364;16.022;2023-05-07T11:39:30;19.60;99.90
7814;DHT22;3952;48.364;16.022;2023-05-07T11:41:59;19.60;99.90
7814;DHT22;3952;48.364;16.022;2023-05-07T11:44:40;19.60;99.90
7814;DHT22;3952;48.364;16.022;2023-05-07T11:47:08;19.50;99.90
7814;DHT22;3952;48.364;16.022;2023-05-07T11:49:37;19.40;99.90
7814;DHT22;3952;48.364;16.022;2023-05-07T11:52:06;19.50;99.90
7814;DHT22;3952;48.364;16.022;2023-05-07T11:54:35;19.50;99.90
7814;DHT22;3952;48.364;16.022;2023-05-07T11:57:03;19.40;99.90
7814;DHT22;3952;48.364;16.022;2023-05-07T11:59:38;19.40;99.90
7814;DHT22;3952;48.364;16.022;2023-05-07T12:02:06;19.50;99.90
7814;DHT22;3952;48.364;16.022;2023-05-07T12:04:33;19.50;99.90
7814;DHT22;3952;48.364;16.022;2023-05-07T12:07:02;19.60;99.90
7814;DHT22;3952;48.364;16.022;2023-05-07T12:09:29;19.80;99.90
7814;DHT22;3952;48.364;16.022;2023-05-07T12:11:56;19.90;99.90
7814;DHT22;3952;48.364;16.022;2023-05-07T12:14:27;19.80;99.90
7814;DHT22;3952;48.364;16.022;2023-05-07T12:16:55;19.80;99.90
7814;DHT22;3952;48.364;16.022;2023-05-07T12:19:23;19.80;99.90
7814;DHT22;3952;48.364;16.022;2023-05-07T12:21:50;19.80;99.90
7814;DHT22;3952;48.364;16.022;2023-05-07T12:24:19;19.80;99.90
7814;DHT22;3952;48.364;16.022;2023-05-07T12:26:47;19.80;99.90
7814;DHT22;3952;48.364;16.022;2023-05-07T12:29:14;19.70;99.90
7814;DHT22;3952;48.364;16.022;2023-05-07T12:31:42;19.80;99.90
7814;DHT22;3952;48.364;16.022;2023-05-07T12:34:11;20.00;99.90
7814;DHT22;3952;48.364;16.022;2023-05-07T12:36:38;19.90;99.90
7814;DHT22;3952;48.364;16.022;2023-05-07T12:39:06;19.60;99.90
7814;DHT22;3952;48.364;16.022;2023-05-07T12:41:52;19.50;99.90
7814;DHT22;3952;48.364;16.022;2023-05-07T12:44:22;19.50;99.90
7814;DHT22;3952;48.364;16.022;2023-05-07T12:46:49;19.50;99.90
7814;DHT22;3952;48.364;16.022;2023-05-07T12:49:16;19.40;99.90
7814;DHT22;3952;48.364;16.022;2023-05-07T12:51:46;19.40;99.90
7814;DHT22;3952;48.364;16.022;2023-05-07T12:54:14;19.50;99.90
7814;DHT22;3952;48.364;16.022;2023-05-07T12:56:42;19.50;99.90
7814;DHT22;3952;48.364;16.022;2023-05-07T12:59:09;19.70;99.90
7814;DHT22;3952;48.364;16.022;2023-05-07T13:01:37;19.80;99.90
7814;DHT22;3952;48.364;16.022;2023-05-07T13:04:04;19.80;99.90
7814;DHT22;3952;48.364;16.022;2023-05-07T13:06:31;19.80;99.90
7814;DHT22;3952;48.364;16.022;2023-05-07T13:08:58;19.90;99.90
7814;DHT22;3952;48.364;16.022;2023-05-07T13:11:25;19.90;99.90
7814;DHT22;3952;48.364;16.022;2023-05-07T13:13:54;19.80;99.90
7814;DHT22;3952;48.364;16.022;2023-05-07T13:16:21;19.80;99.90
7814;DHT22;3952;48.364;16.022;2023-05-07T13:18:48;19.90;99.90
7814;DHT22;3952;48.364;16.022;2023-05-07T13:21:16;19.90;99.90
7814;DHT22;3952;48.364;16.022;2023-05-07T13:23:43;19.90;99.90
7814;DHT22;3952;48.364;16.022;2023-05-07T13:26:10;19.90;99.90
7814;DHT22;3952;48.364;16.022;2023-05-07T13:28:37;19.90;99.90
7814;DHT22;3952;48.364;16.022;2023-05-07T13:31:06;19.90;99.90
7814;DHT22;3952;48.364;16.022;2023-05-07T13:33:33;19.90;99.90
7814;DHT22;3952;48.364;16.022;2023-05-07T13:36:00;19.80;99.90
7814;DHT22;3952;48.364;16.022;2023-05-07T13:38:29;19.80;99.90
7814;DHT22;3952;48.364;16.022;2023-05-07T13:40:56;19.70;99.90
7814;DHT22;3952;48.364;16.022;2023-05-07T13:43:24;19.70;99.90
7814;DHT22;3952;48.364;16.022;2023-05-07T13:45:51;19.70;99.90
7814;DHT22;3952;48.364;16.022;2023-05-07T13:48:19;19.60;99.90
7814;DHT22;3952;48.364;16.022;2023-05-07T13:50:47;19.50;99.90
7814;DHT22;3952;48.364;16.022;2023-05-07T13:53:14;19.50;99.90
7814;DHT22;3952;48.364;16.022;2023-05-07T13:55:43;19.60;99.90
7814;DHT22;3952;48.364;16.022;2023-05-07T13:58:11;19.80;99.90
7814;DHT22;3952;48.364;16.022;2023-05-07T14:00:38;19.90;99.90
7814;DHT22;3952;48.364;16.022;2023-05-07T14:03:05;20.20;99.90
7814;DHT22;3952;48.364;16.022;2023-05-07T14:05:35;20.30;99.90
7814;DHT22;3952;48.364;16.022;2023-05-07T14:08:02;20.30;99.90
7814;DHT22;3952;48.364;16.022;2023-05-07T14:10:30;20.40;99.90
7814;DHT22;3952;48.364;16.022;2023-05-07T14:13:00;20.40;99.90
7814;DHT22;3952;48.364;16.022;2023-05-07T14:15:27;20.30;99.90
7814;DHT22;3952;48.364;16.022;2023-05-07T14:17:54;20.10;99.90
7814;DHT22;3952;48.364;16.022;2023-05-07T14:20:23;20.00;99.90
7814;DHT22;3952;48.364;16.022;2023-05-07T14:22:51;19.90;99.90
7814;DHT22;3952;48.364;16.022;2023-05-07T14:25:19;20.00;99.90
7814;DHT22;3952;48.364;16.022;2023-05-07T14:27:46;20.00;99.90
7814;DHT22;3952;48.364;16.022;2023-05-07T14:30:13;20.10;99.90
7814;DHT22;3952;48.364;16.022;2023-05-07T14:32:40;20.10;99.90
7814;DHT22;3952;48.364;16.022;2023-05-07T14:35:08;20.10;99.90
7814;DHT22;3952;48.364;16.022;2023-05-07T14:37:35;20.10;99.90
7814;DHT22;3952;48.364;16.022;2023-05-07T14:40:05;20.10;99.90
7814;DHT22;3952;48.364;16.022;2023-05-07T14:42:32;20.20;99.90
7814;DHT22;3952;48.364;16.022;2023-05-07T14:44:59;20.10;99.90
7814;DHT22;3952;48.364;16.022;2023-05-07T14:47:26;20.00;99.90
7814;DHT22;3952;48.364;16.022;2023-05-07T14:49:54;19.90;99.90
7814;DHT22;3952;48.364;16.022;2023-05-07T14:52:23;19.80;99.90
7814;DHT22;3952;48.364;16.022;2023-05-07T14:54:50;19.80;99.90
7814;DHT22;3952;48.364;16.022;2023-05-07T14:57:18;19.80;99.90
7814;DHT22;3952;48.364;16.022;2023-05-07T14:59:46;19.70;99.90
7814;DHT22;3952;48.364;16.022;2023-05-07T15:02:13;19.50;99.90
7814;DHT22;3952;48.364;16.022;2023-05-07T15:04:41;19.50;99.90
7814;DHT22;3952;48.364;16.022;2023-05-07T15:07:11;19.40;99.90
7814;DHT22;3952;48.364;16.022;2023-05-07T15:09:40;19.30;99.90
7814;DHT22;3952;48.364;16.022;2023-05-07T15:12:08;19.10;99.90
7814;DHT22;3952;48.364;16.022;2023-05-07T15:14:36;18.90;99.90
7814;DHT22;3952;48.364;16.022;2023-05-07T15:17:04;18.70;99.90
7814;DHT22;3952;48.364;16.022;2023-05-07T15:19:31;18.70;99.90
7814;DHT22;3952;48.364;16.022;2023-05-07T15:21:59;18.70;99.90
7814;DHT22;3952;48.364;16.022;2023-05-07T15:24:28;18.70;99.90
7814;DHT22;3952;48.364;16.022;2023-05-07T15:26:55;18.70;99.90
7814;DHT22;3952;48.364;16.022;2023-05-07T15:29:23;18.60;99.90
7814;DHT22;3952;48.364;16.022;2023-05-07T15:31:52;18.60;99.90
7814;DHT22;3952;48.364;16.022;2023-05-07T15:34:20;18.60;99.90
7814;DHT22;3952;48.364;16.022;2023-05-07T15:36:47;18.60;99.90
7814;DHT22;3952;48.364;16.022;2023-05-07T15:39:15;18.60;99.90
7814;DHT22;3952;48.364;16.022;2023-05-07T15:41:42;18.60;99.90
7814;DHT22;3952;48.364;16.022;2023-05-07T15:44:09;18.60;99.90
7814;DHT22;3952;48.364;16.022;2023-05-07T15:46:36;18.60;99.90
7814;DHT22;3952;48.364;16.022;2023-05-07T15:49:05;18.50;99.90
7814;DHT22;3952;48.364;16.022;2023-05-07T15:51:34;18.40;99.90
7814;DHT22;3952;48.364;16.022;2023-05-07T15:54:02;18.30;99.90
7814;DHT22;3952;48.364;16.022;2023-05-07T15:56:29;18.30;99.90